Avoca, IN

5:13 AM EDT on September 02, 2014 (GMT -0400)
Springville Judah | Change Station
CLOSE
Current Station
Personal Weather Station
Location: Springville, IN
Elevation: 731 ft
Nearby Weather Stations

Elev 731 ft 38.96 °N, 86.58 °W | Updated 6 seconds ago

Thunderstorm
Thunderstorm
68.0 °F
Feels Like 68.0 °F
N
6.0
Wind Variable Wind from North
Gusts 10.7 mph

Today
High -- | Low -- °F
--% Chance of Precip.
Yesterday
High -- | Low -- °F
Precip. -- in
7:16 AM 8:15 PM
Waxing Crescent, 49% visible
Pressure 29.98 in
Visibility 5.0 miles
Clouds Mostly Cloudy 6000 ft
Mostly Cloudy 8000 ft
Overcast 9500 ft
Dew Point 66 °F
Humidity 94%
Rainfall 0.46 in
Snow Depth Not available.
UV 0 out of 12
Pollen 10.40 out of 12
Air Quality Not available.
Flu Activity Not available.
SPECI KBMG 020901Z AUTO 34005KT 5SM +TSRA BR BKN060 BKN080 OVC095 19/18 A2998 RMK AO2 LTG DSNT E-SW TSB0855 P0003 T01940183

More Conditions Fewer Conditions

Pressure 29.98 in
Visibility 5.0 miles
Clouds Mostly Cloudy 6000 ft
Mostly Cloudy 8000 ft
Overcast 9500 ft
Dew Point 66 °F
Humidity 94%
Rainfall 0.46 in
Snow Depth Not available.
UV 0 out of 12
Pollen 10.40 out of 12
Air Quality Not available.
Flu Activity Not available.
SPECI KBMG 020901Z AUTO 34005KT 5SM +TSRA BR BKN060 BKN080 OVC095 19/18 A2998 RMK AO2 LTG DSNT E-SW TSB0855 P0003 T01940183

More Conditions Fewer Conditions

10-Day Weather Forecast

Almanac

Astronomy

Sep. 02, 2014 Rise Set
Actual Time 7:16 AM EDT 8:15 PM EDT
Civil Twilight 6:48 AM EDT 8:42 PM EDT
Nautical Twilight 6:16 AM EDT 9:14 PM EDT
Astronomical Twilight 5:42 AM EDT 9:48 PM EDT
Moon 2:56 PM EDT 12:21 AM EDT
Length of Visible Light 13h 53m
Length of Day
12h 59m
Tomorrow will be 2m 26s shorter.
Waxing Crescent, 49% of the Moon is Illuminated
Today
Waxing Crescent
Sep 2
First Quarter
Sep 8
Full
Sep 15
Last Quarter
Sep 24
New

Today's Extremes

State Highs State Lows

Community

WunderPhotos

Upload Photos

1,749,587 photos uploaded!

WunderBlogs® & News

Nearby

Snow Depth

Station Depth Elevation
No new snow has been reported.

Earthquake Activity

City Distance Mag. Time & Date
No recent earthquake activity has been reported nearby.
Minimum magnitude displayed is 2.5.

Coastal Water Temperatures

Place Temperature
No Stations Reporting

Nearby Weather Stations